Time;durP1;ratioP1;P1;durP2;ratioP2;P2;SDS_P1;SDS_P2;PMS_P1;PMS_P2;Temp;Humidity;BMP_temperature;BMP_pressure;BME280_temperature;BME280_humidity;BME280_pressure;Samples;Min_cycle;Max_cycle;Signal;HPM_P1;HPM_P2
2023/06/21 00:01:35;;;;;;;67.65;38.13;;;19.40;99.90;;;;;;5091708;28;20393;-66
2023/06/21 00:04:00;;;;;;;66.13;39.75;;;19.40;99.90;;;;;;5092353;28;20100;-66
2023/06/21 00:06:34;;;;;;;64.10;36.45;;;19.40;99.90;;;;;;5091935;28;20028;-66
2023/06/21 00:09:03;;;;;;;63.33;34.58;;;19.40;99.90;;;;;;5092319;28;20086;-66
2023/06/21 00:11:30;;;;;;;67.70;39.03;;;19.40;99.90;;;;;;5092032;28;20024;-66
2023/06/21 00:13:58;;;;;;;64.75;39.38;;;19.40;99.90;;;;;;5091916;28;20032;-66
2023/06/21 00:16:23;;;;;;;62.13;38.90;;;19.40;99.90;;;;;;5091422;28;20089;-65
2023/06/21 00:18:49;;;;;;;70.45;40.30;;;19.40;99.90;;;;;;5093238;28;20100;-65
2023/06/21 00:21:15;;;;;;;67.90;39.22;;;19.40;99.90;;;;;;5092932;28;20024;-65
2023/06/21 00:23:44;;;;;;;67.85;39.13;;;19.40;99.90;;;;;;5093179;28;20030;-66
2023/06/21 00:26:09;;;;;;;66.95;40.22;;;19.40;99.90;;;;;;5093204;28;20403;-65
2023/06/21 00:28:35;;;;;;;65.82;38.83;;;19.40;99.90;;;;;;5092910;28;20032;-66
2023/06/21 00:31:00;;;;;;;70.60;39.63;;;19.40;99.90;;;;;;5093013;28;20028;-66
2023/06/21 00:33:26;;;;;;;60.38;37.53;;;19.40;99.90;;;;;;5091986;28;20443;-66
2023/06/21 00:35:52;;;;;;;63.53;38.05;;;19.30;99.90;;;;;;5091557;28;20031;-66
2023/06/21 00:38:18;;;;;;;63.65;35.30;;;19.30;99.90;;;;;;5092948;28;20023;-66
2023/06/21 00:40:43;;;;;;;68.32;37.47;;;19.20;99.90;;;;;;5092688;28;20056;-67
2023/06/21 00:43:09;;;;;;;70.82;37.63;;;19.20;99.90;;;;;;5092228;28;20109;-66
2023/06/21 00:45:40;;;;;;;65.35;36.25;;;19.10;99.90;;;;;;5091697;28;20070;-67
2023/06/21 00:48:07;;;;;;;68.35;38.13;;;19.00;99.90;;;;;;5091344;28;20028;-67
2023/06/21 00:50:32;;;;;;;62.20;36.80;;;19.10;99.90;;;;;;5092124;28;20012;-66
2023/06/21 00:52:58;;;;;;;64.45;37.42;;;19.00;99.90;;;;;;5092136;28;20024;-67
2023/06/21 00:55:23;;;;;;;66.38;36.47;;;18.90;99.90;;;;;;5092456;28;20100;-66
2023/06/21 00:57:51;;;;;;;60.92;34.00;;;18.90;99.90;;;;;;5092376;28;20024;-66
2023/06/21 01:00:23;;;;;;;59.78;33.10;;;18.80;99.90;;;;;;5091672;28;20115;-66
2023/06/21 01:02:54;;;;;;;57.28;31.23;;;18.80;99.90;;;;;;5092518;28;20024;-66
2023/06/21 01:05:22;;;;;;;51.20;28.33;;;18.80;99.90;;;;;;5090109;28;20080;-66
2023/06/21 01:08:21;;;;;;;50.08;29.27;;;18.70;99.90;;;;;;5092166;28;20340;-67
2023/06/21 01:11:07;;;;;;;49.65;27.05;;;18.70;99.90;;;;;;5090978;28;20027;-67
2023/06/21 01:13:41;;;;;;;51.80;28.27;;;18.60;99.90;;;;;;5091598;28;20028;-66
2023/06/21 01:16:15;;;;;;;44.78;24.67;;;18.50;99.90;;;;;;5091911;28;20085;-66
2023/06/21 01:18:46;;;;;;;47.38;24.73;;;18.40;99.90;;;;;;5089767;28;20189;-66
2023/06/21 01:21:22;;;;;;;44.55;24.50;;;18.40;99.90;;;;;;5092044;28;20063;-67
2023/06/21 01:24:31;;;;;;;35.05;20.98;;;18.40;99.90;;;;;;5086786;28;20468;-65
2023/06/21 01:27:23;;;;;;;33.30;18.33;;;18.30;99.90;;;;;;5091647;28;20028;-66
2023/06/21 01:29:55;;;;;;;33.95;18.42;;;18.30;99.90;;;;;;5087997;28;20468;-66
2023/06/21 01:32:21;;;;;;;32.15;15.95;;;18.20;99.90;;;;;;5089489;28;20246;-66
2023/06/21 01:34:48;;;;;;;31.20;14.88;;;18.10;99.90;;;;;;5091858;28;20043;-66
2023/06/21 01:37:14;;;;;;;26.95;12.73;;;18.10;99.90;;;;;;5091129;28;20106;-66
2023/06/21 01:39:39;;;;;;;25.15;11.93;;;18.10;99.90;;;;;;5090532;28;20020;-65
2023/06/21 01:42:05;;;;;;;21.13;11.32;;;18.00;99.90;;;;;;5090685;28;20042;-66
2023/06/21 01:44:31;;;;;;;24.38;11.73;;;18.00;99.90;;;;;;5091639;28;20062;-66
2023/06/21 01:46:58;;;;;;;24.13;11.98;;;18.00;99.90;;;;;;5090054;28;20109;-67
2023/06/21 01:49:26;;;;;;;24.13;11.13;;;17.90;99.90;;;;;;5091994;28;20387;-65
2023/06/21 01:51:53;;;;;;;22.73;10.73;;;17.90;99.90;;;;;;5095260;28;20365;-65
2023/06/21 01:54:20;;;;;;;23.88;11.68;;;17.80;99.90;;;;;;5106191;28;20124;-67
2023/06/21 01:56:49;;;;;;;21.33;10.77;;;17.80;99.90;;;;;;5094771;28;20039;-67
2023/06/21 01:59:15;;;;;;;20.83;10.07;;;17.80;99.90;;;;;;5099730;28;20099;-66
2023/06/21 02:01:42;;;;;;;22.20;10.85;;;17.80;99.90;;;;;;5095594;28;20115;-66
2023/06/21 02:04:10;;;;;;;20.27;9.40;;;17.70;99.90;;;;;;5108405;28;20450;-66
2023/06/21 02:06:39;;;;;;;20.50;9.23;;;17.70;99.90;;;;;;5104316;28;20052;-66
2023/06/21 02:09:09;;;;;;;25.45;10.98;;;17.70;99.90;;;;;;5104368;28;20054;-67
2023/06/21 02:11:36;;;;;;;19.73;9.45;;;17.70;99.90;;;;;;5096437;28;20358;-67
2023/06/21 02:14:02;;;;;;;18.15;10.40;;;17.60;99.90;;;;;;5099273;28;20035;-66
2023/06/21 02:16:29;;;;;;;21.85;10.98;;;17.60;99.90;;;;;;5108851;28;20030;-66
2023/06/21 02:18:55;;;;;;;24.05;9.85;;;17.60;99.90;;;;;;5083181;28;20024;-66
2023/06/21 02:21:21;;;;;;;22.40;9.63;;;17.60;99.90;;;;;;5110310;28;20031;-67
2023/06/21 02:23:46;;;;;;;20.25;9.13;;;17.50;99.90;;;;;;5097826;28;20107;-66
2023/06/21 02:26:12;;;;;;;20.58;9.15;;;17.50;99.90;;;;;;5111184;28;20072;-67
2023/06/21 02:28:38;;;;;;;20.08;8.88;;;17.50;99.90;;;;;;5107377;28;20032;-66
2023/06/21 02:31:03;;;;;;;17.73;7.40;;;17.50;99.90;;;;;;5107523;28;20098;-66
2023/06/21 02:33:31;;;;;;;15.68;7.43;;;17.50;99.90;;;;;;5115800;28;20050;-67
2023/06/21 02:35:57;;;;;;;15.48;7.43;;;17.40;99.90;;;;;;5098969;28;20039;-65
2023/06/21 02:38:25;;;;;;;19.33;7.18;;;17.40;99.90;;;;;;5109361;28;20088;-66
2023/06/21 02:40:51;;;;;;;19.98;6.47;;;17.40;99.90;;;;;;5105934;28;20114;-66
2023/06/21 02:43:16;;;;;;;16.55;7.03;;;17.40;99.90;;;;;;5101818;28;20074;-67
2023/06/21 02:45:42;;;;;;;14.57;7.20;;;17.40;99.90;;;;;;5112307;28;20066;-67
2023/06/21 02:48:07;;;;;;;15.75;7.28;;;17.30;99.90;;;;;;5099829;28;20024;-67
2023/06/21 02:50:33;;;;;;;18.77;6.57;;;17.30;99.90;;;;;;5107319;28;20508;-66
2023/06/21 02:52:58;;;;;;;15.77;6.10;;;17.30;99.90;;;;;;5106639;28;20439;-67
2023/06/21 02:55:24;;;;;;;15.32;5.95;;;17.30;99.90;;;;;;5101920;28;20068;-65
2023/06/21 02:57:49;;;;;;;13.57;6.03;;;17.20;99.90;;;;;;5103215;28;20099;-66
2023/06/21 03:00:22;;;;;;;13.43;6.03;;;17.20;99.90;;;;;;5109983;28;20024;-66
2023/06/21 03:02:49;;;;;;;13.75;5.43;;;17.20;99.90;;;;;;5094573;28;20030;-66
2023/06/21 03:05:15;;;;;;;14.73;5.60;;;17.20;99.90;;;;;;5101514;28;20035;-66
2023/06/21 03:07:44;;;;;;;16.30;5.38;;;17.20;99.90;;;;;;5111745;28;20019;-68
2023/06/21 03:10:11;;;;;;;14.55;5.93;;;17.20;99.90;;;;;;5099433;28;20107;-66
2023/06/21 03:12:38;;;;;;;17.20;5.70;;;17.20;99.90;;;;;;5106589;28;20024;-67
2023/06/21 03:15:04;;;;;;;15.55;5.72;;;17.20;99.90;;;;;;5107196;28;20032;-66
2023/06/21 03:17:30;;;;;;;14.32;6.13;;;17.20;99.90;;;;;;5098734;28;20081;-67
2023/06/21 03:19:55;;;;;;;18.52;5.97;;;17.30;99.90;;;;;;5111555;28;20027;-66
2023/06/21 03:22:21;;;;;;;13.35;5.43;;;17.30;99.90;;;;;;5100261;28;20032;-66
2023/06/21 03:24:47;;;;;;;15.60;6.45;;;17.30;99.90;;;;;;5104633;28;20031;-66
2023/06/21 03:27:13;;;;;;;13.63;5.00;;;17.40;99.90;;;;;;5107049;28;20032;-66
2023/06/21 03:29:38;;;;;;;14.32;5.63;;;17.40;99.90;;;;;;5097764;28;20443;-67
2023/06/21 03:32:04;;;;;;;14.25;5.78;;;17.50;99.90;;;;;;5110510;28;20044;-66
2023/06/21 03:34:30;;;;;;;14.35;5.50;;;17.50;99.90;;;;;;5101868;28;20039;-67
2023/06/21 03:36:55;;;;;;;12.90;4.80;;;17.60;99.90;;;;;;5103241;28;20035;-66
2023/06/21 03:39:21;;;;;;;14.32;5.60;;;17.60;99.90;;;;;;5109131;28;20027;-67
2023/06/21 03:41:47;;;;;;;13.68;5.85;;;17.70;99.90;;;;;;5096365;28;20032;-67
2023/06/21 03:44:12;;;;;;;14.52;4.80;;;17.70;99.90;;;;;;5107960;28;20391;-67
2023/06/21 03:46:39;;;;;;;12.32;5.40;;;17.70;99.90;;;;;;5102856;28;20028;-67
2023/06/21 03:49:05;;;;;;;16.08;5.82;;;17.80;99.90;;;;;;5101964;28;20039;-66
2023/06/21 03:51:30;;;;;;;20.38;5.85;;;17.80;99.90;;;;;;5110069;28;20027;-66
2023/06/21 03:53:57;;;;;;;14.95;5.72;;;17.80;99.90;;;;;;5097223;28;20089;-67
2023/06/21 03:56:22;;;;;;;13.15;5.50;;;17.90;99.90;;;;;;5107546;28;20035;-67
2023/06/21 03:58:48;;;;;;;15.27;6.00;;;17.90;99.90;;;;;;5103963;28;20023;-66
2023/06/21 04:01:15;;;;;;;14.35;5.38;;;18.00;99.90;;;;;;5100152;28;20099;-67
2023/06/21 04:03:40;;;;;;;12.50;5.00;;;18.00;99.90;;;;;;5110739;28;20028;-67
2023/06/21 04:06:06;;;;;;;18.08;6.15;;;18.00;99.90;;;;;;5098235;28;20027;-66
2023/06/21 04:08:31;;;;;;;17.83;6.07;;;18.00;99.90;;;;;;5106763;28;20391;-67
2023/06/21 04:10:57;;;;;;;14.65;5.35;;;18.00;99.90;;;;;;5104197;28;20043;-66
2023/06/21 04:13:22;;;;;;;13.18;6.20;;;18.00;99.90;;;;;;5099181;28;20119;-67
2023/06/21 04:15:48;;;;;;;13.57;5.50;;;18.00;99.90;;;;;;5109121;28;20035;-67
2023/06/21 04:18:14;;;;;;;15.90;4.82;;;18.00;99.90;;;;;;5099118;28;20051;-67
2023/06/21 04:20:39;;;;;;;14.43;5.55;;;18.00;99.90;;;;;;5105253;28;20032;-67
2023/06/21 04:23:05;;;;;;;16.30;6.97;;;18.10;99.90;;;;;;5106019;28;20041;-67
2023/06/21 04:25:30;;;;;;;18.10;7.00;;;18.20;99.90;;;;;;5097781;28;20032;-66
2023/06/21 04:27:56;;;;;;;9.45;4.90;;;18.30;99.90;;;;;;5110067;28;20032;-67
2023/06/21 04:30:22;;;;;;;14.27;5.57;;;18.40;99.90;;;;;;5099932;28;20871;-67
2023/06/21 04:32:47;;;;;;;14.00;5.60;;;18.50;99.90;;;;;;5103513;28;20052;-67
2023/06/21 04:35:17;;;;;;;16.50;5.32;;;18.60;99.90;;;;;;5105712;28;20062;-67
2023/06/21 04:37:47;;;;;;;16.88;5.25;;;18.70;99.90;;;;;;5096852;28;20040;-66
2023/06/21 04:40:18;;;;;;;14.85;5.40;;;18.80;99.90;;;;;;5108608;28;20107;-67
2023/06/21 04:42:45;;;;;;;13.80;5.25;;;18.90;99.90;;;;;;5102783;28;20053;-67
2023/06/21 04:45:14;;;;;;;12.70;5.90;;;18.90;99.90;;;;;;5100391;28;20123;-67
2023/06/21 04:47:46;;;;;;;14.20;5.32;;;19.00;99.90;;;;;;5109940;28;20035;-67
2023/06/21 04:50:12;;;;;;;15.27;5.88;;;19.00;99.90;;;;;;5098065;28;20077;-67
2023/06/21 04:52:38;;;;;;;11.05;4.85;;;19.10;99.90;;;;;;5104729;28;20059;-66
2023/06/21 04:55:05;;;;;;;12.80;5.35;;;19.10;99.90;;;;;;5105350;28;20491;-66
2023/06/21 04:57:31;;;;;;;10.85;5.07;;;19.10;99.90;;;;;;5096989;28;20383;-66
2023/06/21 04:59:56;;;;;;;14.98;5.75;;;19.20;99.90;;;;;;5109728;28;20032;-66
2023/06/21 05:02:22;;;;;;;10.32;4.80;;;19.20;99.90;;;;;;5099195;28;20087;-66
2023/06/21 05:04:47;;;;;;;13.70;5.78;;;19.30;99.90;;;;;;5103163;28;20034;-66
2023/06/21 05:07:13;;;;;;;14.77;5.40;;;19.40;99.90;;;;;;5106786;28;20107;-66
2023/06/21 05:09:39;;;;;;;17.38;6.30;;;19.50;99.90;;;;;;5095148;28;20031;-66
2023/06/21 05:12:08;;;;;;;12.43;5.72;;;19.60;99.90;;;;;;5109408;28;20024;-66
2023/06/21 05:14:34;;;;;;;26.65;11.73;;;19.80;99.90;;;;;;5100855;28;20048;-67
2023/06/21 05:17:00;;;;;;;12.65;5.05;;;19.90;99.90;;;;;;5101424;28;20028;-67
2023/06/21 05:19:25;;;;;;;12.70;6.05;;;20.20;99.90;;;;;;5108318;28;20031;-66
2023/06/21 05:21:51;;;;;;;20.05;8.57;;;20.30;99.90;;;;;;5096369;28;20028;-66
2023/06/21 05:24:16;;;;;;;14.70;4.75;;;20.50;99.90;;;;;;5107197;28;20039;-66
2023/06/21 05:26:44;;;;;;;17.88;5.53;;;20.60;99.90;;;;;;5100451;28;20039;-65
2023/06/21 05:29:11;;;;;;;11.05;4.38;;;20.80;99.90;;;;;;5099738;28;20028;-67
2023/06/21 05:31:37;;;;;;;11.02;4.50;;;21.20;99.90;;;;;;5109159;28;20375;-66
2023/06/21 05:34:02;;;;;;;10.80;3.95;;;21.40;99.90;;;;;;5096346;28;20104;-66
2023/06/21 05:36:28;;;;;;;10.23;4.07;;;21.60;99.90;;;;;;5105684;28;20119;-66
2023/06/21 05:38:53;;;;;;;12.45;3.75;;;21.90;99.90;;;;;;5103072;28;20043;-67
2023/06/21 05:41:19;;;;;;;12.68;3.70;;;22.20;99.90;;;;;;5098226;28;20032;-67
2023/06/21 05:43:44;;;;;;;12.38;3.50;;;22.50;99.90;;;;;;5109271;28;20020;-66
2023/06/21 05:46:10;;;;;;;9.48;3.58;;;22.80;99.90;;;;;;5096906;28;20434;-66
2023/06/21 05:48:36;;;;;;;9.30;3.70;;;23.10;99.90;;;;;;5104461;28;20064;-67
2023/06/21 05:51:02;;;;;;;7.90;2.78;;;23.60;99.90;;;;;;5104486;28;20032;-67
2023/06/21 05:53:27;;;;;;;7.68;2.38;;;24.20;99.90;;;;;;5096729;28;20032;-67
2023/06/21 05:55:54;;;;;;;11.50;2.85;;;24.50;99.90;;;;;;5108442;28;20028;-67
2023/06/21 05:58:20;;;;;;;10.05;2.75;;;24.60;99.90;;;;;;5098255;28;20054;-67
2023/06/21 06:00:46;;;;;;;8.88;2.53;;;24.80;99.90;;;;;;5110079;28;20416;-67
2023/06/21 06:03:12;;;;;;;10.88;2.92;;;25.30;99.90;;;;;;5098485;28;20032;-67
2023/06/21 06:05:37;;;;;;;6.05;2.00;;;25.40;99.90;;;;;;5108787;28;20024;-67
2023/06/21 06:08:03;;;;;;;8.90;2.67;;;25.60;99.90;;;;;;5095638;28;20024;-66
2023/06/21 06:10:29;;;;;;;9.15;2.20;;;25.70;99.90;;;;;;5098394;28;20024;-66
2023/06/21 06:12:54;;;;;;;10.38;2.17;;;25.90;99.90;;;;;;5092744;28;20024;-66
2023/06/21 06:15:20;;;;;;;7.28;2.60;;;26.30;99.90;;;;;;5092588;28;20071;-66
2023/06/21 06:17:46;;;;;;;6.10;2.92;;;26.80;99.90;;;;;;5109118;28;20039;-66
2023/06/21 06:20:12;;;;;;;7.10;2.00;;;27.40;99.90;;;;;;5097481;28;20055;-66
2023/06/21 06:22:39;;;;;;;8.90;2.22;;;27.70;99.90;;;;;;5103854;28;20027;-66
2023/06/21 06:25:06;;;;;;;4.95;2.00;;;27.50;99.90;;;;;;5104679;28;20451;-66
2023/06/21 06:27:31;;;;;;;6.47;2.00;;;27.20;99.90;;;;;;5096200;28;20387;-66
2023/06/21 06:29:57;;;;;;;7.28;2.28;;;27.20;99.90;;;;;;5108758;28;20028;-66
2023/06/21 06:32:23;;;;;;;7.18;2.38;;;27.20;99.70;;;;;;5098608;28;20059;-66
2023/06/21 06:34:49;;;;;;;4.95;2.22;;;27.50;99.90;;;;;;5101968;28;20136;-65
2023/06/21 06:37:14;;;;;;;7.75;2.20;;;28.00;99.10;;;;;;5105658;28;20402;-66
2023/06/21 06:39:40;;;;;;;5.00;2.03;;;28.30;98.50;;;;;;5093543;28;20024;-66
2023/06/21 06:42:06;;;;;;;5.60;1.40;;;28.40;98.30;;;;;;5102499;28;20028;-66
2023/06/21 06:44:32;;;;;;;5.80;1.85;;;28.00;98.00;;;;;;5103800;28;20086;-66
2023/06/21 06:46:58;;;;;;;6.88;2.05;;;27.70;98.20;;;;;;5103363;28;20455;-66
2023/06/21 06:49:23;;;;;;;8.40;2.00;;;27.80;98.40;;;;;;5097208;28;20031;-66
2023/06/21 06:51:49;;;;;;;8.10;2.25;;;27.90;97.90;;;;;;5107973;28;20608;-65
2023/06/21 06:54:14;;;;;;;4.97;1.67;;;28.10;97.90;;;;;;5094811;28;20047;-66
2023/06/21 06:56:40;;;;;;;8.45;2.10;;;28.30;97.60;;;;;;5100930;28;20394;-66
2023/06/21 06:59:05;;;;;;;7.15;2.10;;;28.70;97.20;;;;;;5103387;28;20809;-66
2023/06/21 07:01:31;;;;;;;8.45;2.50;;;29.20;96.80;;;;;;5097630;28;20028;-67
2023/06/21 07:03:56;;;;;;;5.30;1.75;;;29.80;96.10;;;;;;5111957;28;20027;-66
2023/06/21 07:06:22;;;;;;;7.25;1.60;;;30.10;94.80;;;;;;5101331;28;20099;-67
2023/06/21 07:08:48;;;;;;;6.55;1.95;;;29.90;94.70;;;;;;5105353;28;20024;-66
2023/06/21 07:11:13;;;;;;;4.25;2.20;;;29.40;95.10;;;;;;5108849;28;20059;-67
2023/06/21 07:13:39;;;;;;;6.72;2.35;;;29.10;95.20;;;;;;5098127;28;20071;-66
2023/06/21 07:16:05;;;;;;;6.20;2.03;;;29.20;95.90;;;;;;5106074;28;20040;-66
2023/06/21 07:18:31;;;;;;;6.32;2.08;;;29.60;95.30;;;;;;5102643;28;20107;-65
2023/06/21 07:20:56;;;;;;;7.25;1.92;;;30.00;95.00;;;;;;5101925;28;20028;-66
2023/06/21 07:23:22;;;;;;;7.35;1.90;;;29.90;94.70;;;;;;5108084;28;20036;-66
2023/06/21 07:25:48;;;;;;;5.30;2.10;;;30.00;94.40;;;;;;5096385;28;20055;-66
2023/06/21 07:28:14;;;;;;;5.38;1.98;;;29.70;94.40;;;;;;5104824;28;20056;-67
2023/06/21 07:30:39;;;;;;;9.82;2.90;;;29.60;94.70;;;;;;5092168;28;20032;-65
2023/06/21 07:33:08;;;;;;;5.28;2.20;;;29.60;95.10;;;;;;5094988;28;20067;-66
2023/06/21 07:35:34;;;;;;;4.90;2.10;;;30.00;94.90;;;;;;5096641;28;20031;-66
2023/06/21 07:37:59;;;;;;;5.93;2.60;;;30.10;94.20;;;;;;5097450;28;20032;-66
2023/06/21 07:40:25;;;;;;;5.50;1.95;;;30.00;94.80;;;;;;5093286;28;20107;-66
2023/06/21 07:42:50;;;;;;;7.10;2.13;;;30.10;94.30;;;;;;5094975;28;20031;-68
2023/06/21 07:45:16;;;;;;;4.57;2.05;;;30.20;94.20;;;;;;5094785;28;20024;-66
2023/06/21 07:47:42;;;;;;;6.57;2.30;;;30.00;94.30;;;;;;5095728;28;20490;-67
2023/06/21 07:50:08;;;;;;;7.25;2.45;;;30.00;94.40;;;;;;5094236;28;20538;-66
2023/06/21 07:52:39;;;;;;;9.82;2.78;;;30.40;94.30;;;;;;5093940;28;20397;-67
2023/06/21 07:55:05;;;;;;;6.35;2.50;;;30.60;93.90;;;;;;5093607;28;20020;-66
2023/06/21 07:57:32;;;;;;;6.20;2.20;;;30.40;94.00;;;;;;5110528;28;20097;-66
2023/06/21 08:00:02;;;;;;;5.30;2.30;;;29.90;94.50;;;;;;5097729;28;20443;-67
2023/06/21 08:02:28;;;;;;;5.72;2.25;;;29.50;95.00;;;;;;5100370;28;20077;-67
2023/06/21 08:04:53;;;;;;;7.47;2.53;;;29.10;95.20;;;;;;5093488;28;20032;-66
2023/06/21 08:07:19;;;;;;;9.48;2.38;;;28.50;96.10;;;;;;5093786;28;20023;-66
2023/06/21 08:09:45;;;;;;;9.00;2.50;;;28.10;96.60;;;;;;5093387;28;20085;-66
2023/06/21 08:12:10;;;;;;;8.25;2.67;;;27.80;97.00;;;;;;5093555;28;20032;-67
2023/06/21 08:14:36;;;;;;;6.93;2.25;;;27.60;97.60;;;;;;5093439;28;20067;-67
2023/06/21 08:17:02;;;;;;;8.57;2.58;;;27.40;97.80;;;;;;5091988;28;20119;-66
2023/06/21 08:19:27;;;;;;;11.40;3.92;;;27.30;98.20;;;;;;5093034;28;20052;-66
2023/06/21 08:21:53;;;;;;;7.90;2.83;;;27.60;98.40;;;;;;5093550;28;20055;-66
2023/06/21 08:24:18;;;;;;;10.35;2.88;;;28.30;98.00;;;;;;5093277;28;20024;-66
2023/06/21 08:26:44;;;;;;;6.63;2.65;;;28.80;97.20;;;;;;5091520;28;20020;-67
2023/06/21 08:29:09;;;;;;;9.43;2.90;;;29.60;95.90;;;;;;5092929;28;20400;-66
2023/06/21 08:31:35;;;;;;;6.40;2.75;;;30.20;95.70;;;;;;5093811;28;20020;-65
2023/06/21 08:34:01;;;;;;;8.00;2.35;;;30.90;94.50;;;;;;5087976;28;20055;-66
2023/06/21 08:36:26;;;;;;;10.25;2.72;;;31.00;93.80;;;;;;5091408;28;20096;-65
2023/06/21 08:38:52;;;;;;;5.90;2.47;;;31.30;93.90;;;;;;5091390;28;20383;-66
2023/06/21 08:41:17;;;;;;;9.05;2.72;;;31.50;93.60;;;;;;5092761;28;20062;-66
2023/06/21 08:43:43;;;;;;;8.45;2.65;;;32.10;92.90;;;;;;5093097;28;20028;-66
2023/06/21 08:46:10;;;;;;;11.48;3.20;;;32.30;92.40;;;;;;5093066;28;20028;-66
2023/06/21 08:48:37;;;;;;;8.07;2.92;;;32.80;92.30;;;;;;5091971;28;20055;-66
2023/06/21 08:51:05;;;;;;;7.90;2.72;;;33.50;91.70;;;;;;5092823;28;20059;-66
2023/06/21 08:53:43;;;;;;;6.22;2.95;;;34.30;90.80;;;;;;5090222;28;20494;-66
2023/06/21 08:56:13;;;;;;;8.10;3.30;;;34.70;90.00;;;;;;5071985;28;20115;-66
2023/06/21 08:58:45;;;;;;;10.68;3.53;;;34.80;89.30;;;;;;5072879;28;20032;-65
2023/06/21 09:01:14;;;;;;;9.93;3.20;;;34.90;88.70;;;;;;5072265;28;20028;-66
2023/06/21 09:03:57;;;;;;;8.88;4.13;;;34.70;87.30;;;;;;5072411;28;20036;-66
2023/06/21 09:06:24;;;;;;;10.50;3.75;;;34.30;89.00;;;;;;5072577;28;20137;-67
2023/06/21 09:08:52;;;;;;;7.63;2.83;;;34.50;88.60;;;;;;5072739;28;20132;-66
2023/06/21 09:11:20;;;;;;;7.72;3.03;;;34.90;87.20;;;;;;5072356;28;20028;-66
2023/06/21 09:13:47;;;;;;;8.90;2.97;;;35.00;87.80;;;;;;5072517;28;20041;-67
2023/06/21 09:16:13;;;;;;;10.13;3.53;;;35.20;87.10;;;;;;5072571;28;20427;-66
2023/06/21 09:18:39;;;;;;;6.05;2.95;;;35.30;86.60;;;;;;5080250;28;20024;-66
2023/06/21 09:21:06;;;;;;;7.80;3.10;;;35.60;86.40;;;;;;5103464;28;20032;-66
2023/06/21 09:23:32;;;;;;;11.57;3.42;;;35.60;85.00;;;;;;5099343;28;20032;-66
2023/06/21 09:25:58;;;;;;;10.38;3.30;;;35.90;85.50;;;;;;5092160;28;20023;-66
2023/06/21 09:28:24;;;;;;;9.15;3.40;;;36.40;84.50;;;;;;5111391;28;20015;-66
2023/06/21 09:30:50;;;;;;;9.23;3.50;;;36.70;83.80;;;;;;5113195;28;20028;-66
2023/06/21 09:33:16;;;;;;;7.75;2.70;;;37.00;82.80;;;;;;5112688;28;20081;-67
2023/06/21 09:35:43;;;;;;;9.10;3.10;;;37.00;81.90;;;;;;5104724;28;20058;-67
2023/06/21 09:38:24;;;;;;;10.30;3.17;;;36.70;82.20;;;;;;5092876;28;20031;-66
2023/06/21 09:40:49;;;;;;;;;;;36.50;82.50;;;;;;5092929;28;20042;-66
2023/06/21 09:43:15;;;;;;;8.63;3.55;;;36.50;82.00;;;;;;5091967;28;19908;-66
2023/06/21 09:45:41;;;;;;;7.03;3.00;;;36.60;81.50;;;;;;5091050;28;20052;-66
2023/06/21 09:48:06;;;;;;;9.95;3.17;;;36.60;82.20;;;;;;5091454;28;20028;-66
2023/06/21 09:50:41;;;;;;;7.35;3.25;;;37.10;81.40;;;;;;5092427;28;20451;-66
2023/06/21 09:53:13;;;;;;;8.40;3.58;;;37.30;80.30;;;;;;5103539;28;20462;-66
2023/06/21 09:55:43;;;;;;;;;;;37.20;80.50;;;;;;5101004;28;20079;-66
2023/06/21 09:58:08;;;;;;;7.00;3.00;;;37.10;81.00;;;;;;5092742;28;20328;-67
2023/06/21 10:00:37;;;;;;;11.00;3.63;;;37.30;80.30;;;;;;5092535;28;20077;-66
2023/06/21 10:03:03;;;;;;;9.30;3.90;;;37.60;79.80;;;;;;5092065;28;20560;-66
2023/06/21 10:05:29;;;;;;;11.32;3.22;;;37.60;78.40;;;;;;5091953;28;20031;-66
2023/06/21 10:07:54;;;;;;;8.05;3.30;;;36.90;79.70;;;;;;5092043;28;20032;-67
2023/06/21 10:10:20;;;;;;;8.35;3.30;;;36.70;80.40;;;;;;5092507;28;20024;-67
2023/06/21 10:12:53;;;;;;;8.48;3.42;;;37.00;79.50;;;;;;5092351;28;20020;-66
2023/06/21 10:15:19;;;;;;;10.50;3.42;;;37.10;79.00;;;;;;5092199;28;20483;-67
2023/06/21 10:17:46;;;;;;;9.52;4.63;;;37.30;79.10;;;;;;5092278;28;20036;-67
2023/06/21 10:20:14;;;;;;;11.98;3.75;;;37.10;78.10;;;;;;5092004;28;20028;-68
2023/06/21 10:22:43;;;;;;;11.23;3.47;;;36.80;79.20;;;;;;5092175;28;20051;-66
2023/06/21 10:25:10;;;;;;;9.88;3.53;;;37.00;79.00;;;;;;5091592;28;20039;-65
2023/06/21 10:27:37;;;;;;;11.95;3.60;;;37.00;78.50;;;;;;5106554;28;20072;-68
2023/06/21 10:30:04;;;;;;;8.15;3.55;;;36.60;78.80;;;;;;5112144;28;20471;-67
2023/06/21 10:32:33;;;;;;;11.27;3.80;;;36.50;79.10;;;;;;5113684;28;20483;-67
2023/06/21 10:35:05;;;;;;;14.55;3.33;;;36.40;78.90;;;;;;5116297;27;20100;-67
2023/06/21 10:37:50;;;;;;;;;;;36.10;79.10;;;;;;5096146;28;20032;-67
2023/06/21 10:40:18;;;;;;;9.18;3.70;;;35.90;79.20;;;;;;5096028;28;19950;-66
2023/06/21 10:42:45;;;;;;;10.15;4.20;;;35.00;80.10;;;;;;5095885;28;20119;-67
2023/06/21 10:45:12;;;;;;;10.43;3.80;;;34.30;81.60;;;;;;5095673;28;20028;-67
2023/06/21 10:47:39;;;;;;;8.65;3.42;;;34.30;82.20;;;;;;5095704;28;20107;-66
2023/06/21 10:50:06;;;;;;;9.85;3.50;;;34.80;81.40;;;;;;5095350;28;20024;-67
2023/06/21 10:52:34;;;;;;;8.52;3.47;;;34.90;81.10;;;;;;5095169;28;20548;-66
2023/06/21 10:55:02;;;;;;;12.98;4.50;;;34.20;81.80;;;;;;5095250;28;20452;-66
2023/06/21 10:57:31;;;;;;;8.63;4.00;;;33.70;82.60;;;;;;5095616;28;20122;-69
2023/06/21 10:59:59;;;;;;;9.23;3.67;;;32.90;83.50;;;;;;5094805;28;20116;-67
2023/06/21 11:02:27;;;;;;;10.55;4.40;;;31.60;85.70;;;;;;5085182;28;20025;-67
2023/06/21 11:05:18;;;;;;;11.10;4.25;;;30.60;88.10;;;;;;5075176;28;20106;-67
2023/06/21 11:08:00;;;;;;;13.52;4.53;;;30.00;89.50;;;;;;5075020;28;20066;-67
2023/06/21 11:10:49;;;;;;;;;;;29.60;90.70;;;;;;5080413;28;20059;-67
2023/06/21 11:13:32;;;;;;;12.40;4.07;;;29.50;90.50;;;;;;5095208;28;20057;-66
2023/06/21 11:16:12;;;;;;;10.40;3.60;;;29.40;91.10;;;;;;5095188;28;20063;-66
2023/06/21 11:18:38;;;;;;;11.32;4.22;;;29.90;90.80;;;;;;5094843;28;20035;-67
2023/06/21 11:21:07;;;;;;;9.60;3.60;;;30.30;90.10;;;;;;5095082;28;20123;-66
2023/06/21 11:23:49;;;;;;;10.85;4.53;;;30.40;90.00;;;;;;5095187;28;20039;-67
2023/06/21 11:26:14;;;;;;;;;;;30.40;90.10;;;;;;5095614;28;20024;-67
2023/06/21 11:28:47;;;;;;;13.30;4.10;;;30.40;90.10;;;;;;5095232;28;20044;-67
2023/06/21 11:31:17;;;;;;;12.20;4.28;;;30.60;90.30;;;;;;5094902;28;20035;-67
2023/06/21 11:33:44;;;;;;;11.40;4.25;;;30.70;90.10;;;;;;5094823;28;20376;-66
2023/06/21 11:36:10;;;;;;;10.52;3.75;;;30.90;89.90;;;;;;5085565;28;20024;-67
2023/06/21 11:38:37;;;;;;;11.98;4.70;;;31.00;90.00;;;;;;5074492;28;20035;-66
2023/06/21 11:41:55;;;;;;;9.93;4.78;;;31.10;89.30;;;;;;5074749;28;20077;-66
2023/06/21 11:44:23;;;;;;;9.43;4.25;;;30.90;89.50;;;;;;5074134;28;20028;-66
2023/06/21 11:46:49;;;;;;;10.98;4.88;;;30.80;89.90;;;;;;5074491;28;20040;-66
2023/06/21 11:49:15;;;;;;;12.35;5.40;;;31.10;89.40;;;;;;5074459;28;20021;-67
2023/06/21 11:52:04;;;;;;;13.30;5.03;;;31.10;89.50;;;;;;5074437;28;20052;-67
2023/06/21 11:54:39;;;;;;;10.60;5.15;;;30.80;89.70;;;;;;5063680;28;20488;-66
2023/06/21 11:57:07;;;;;;;8.75;5.13;;;30.30;90.20;;;;;;5074322;28;20028;-66
2023/06/21 11:59:34;;;;;;;9.13;4.95;;;30.10;90.30;;;;;;5074222;28;20464;-67
2023/06/21 12:02:17;;;;;;;13.40;5.47;;;30.10;90.50;;;;;;5083333;28;20020;-67
2023/06/21 12:04:43;;;;;;;13.25;4.90;;;30.10;90.30;;;;;;5093382;28;20108;-67
2023/06/21 12:07:10;;;;;;;11.70;4.60;;;30.30;90.30;;;;;;5094076;28;20058;-66
2023/06/21 12:09:39;;;;;;;11.63;4.75;;;30.40;90.10;;;;;;5094299;28;20077;-66
2023/06/21 12:12:06;;;;;;;10.23;4.90;;;30.50;90.10;;;;;;5094250;28;20024;-66
2023/06/21 12:14:32;;;;;;;8.40;4.53;;;30.60;89.90;;;;;;5093981;28;20451;-67
2023/06/21 12:16:59;;;;;;;15.10;5.55;;;30.80;89.30;;;;;;5093553;28;20045;-67
2023/06/21 12:19:25;;;;;;;15.13;5.20;;;30.50;90.00;;;;;;5093999;28;20040;-66
2023/06/21 12:21:50;;;;;;;11.48;5.00;;;30.70;90.50;;;;;;5094108;28;20487;-67
2023/06/21 12:24:30;;;;;;;10.75;5.43;;;31.30;90.20;;;;;;5093905;28;20103;-67
2023/06/21 12:26:57;;;;;;;8.52;4.78;;;31.50;88.00;;;;;;5093910;28;20383;-66
2023/06/21 12:29:23;;;;;;;11.73;4.63;;;32.10;88.20;;;;;;5093099;28;20024;-66
2023/06/21 12:31:49;;;;;;;8.30;4.95;;;32.70;87.50;;;;;;5093322;28;20119;-66
2023/06/21 12:34:17;;;;;;;10.82;4.97;;;33.40;85.90;;;;;;5092929;28;20126;-67
2023/06/21 12:36:45;;;;;;;9.70;4.38;;;33.60;84.20;;;;;;5108508;28;20034;-67
2023/06/21 12:39:12;;;;;;;11.25;5.45;;;33.30;84.40;;;;;;5095813;28;20048;-67
2023/06/21 12:41:41;;;;;;;9.32;4.28;;;32.80;85.90;;;;;;5096280;28;20475;-67
2023/06/21 12:44:17;;;;;;;8.50;3.92;;;32.70;85.80;;;;;;5113844;28;20041;-66